createdAt,value
2023-02-19T00:01:50.006Z,56.40
2023-02-19T00:04:21.854Z,56.50
2023-02-19T00:06:51.124Z,56.60
2023-02-19T00:09:22.457Z,56.50
2023-02-19T00:11:51.433Z,56.60
2023-02-19T00:14:22.085Z,57.00
2023-02-19T00:16:52.197Z,57.10
2023-02-19T00:19:24.066Z,57.10
2023-02-19T00:21:54.862Z,57.20
2023-02-19T00:24:26.346Z,57.60
2023-02-19T00:26:55.339Z,57.60
2023-02-19T00:29:25.781Z,57.80
2023-02-19T00:31:54.331Z,57.60
2023-02-19T00:34:24.999Z,57.50
2023-02-19T00:36:54.332Z,57.30
2023-02-19T00:39:22.950Z,57.50
2023-02-19T00:41:53.631Z,57.60
2023-02-19T00:44:22.836Z,57.80
2023-02-19T00:46:51.256Z,57.90
2023-02-19T00:49:24.019Z,58.00
2023-02-19T00:51:54.419Z,58.20
2023-02-19T00:54:23.601Z,58.30
2023-02-19T00:56:55.043Z,58.00
2023-02-19T00:59:23.446Z,57.80
2023-02-19T01:01:52.374Z,57.50
2023-02-19T01:04:21.500Z,58.00
2023-02-19T01:06:49.868Z,57.60
2023-02-19T01:09:19.408Z,58.20
2023-02-19T01:11:48.729Z,57.80
2023-02-19T01:14:18.407Z,57.70
2023-02-19T01:16:48.792Z,57.80
2023-02-19T01:19:19.079Z,58.10
2023-02-19T01:21:47.841Z,57.90
2023-02-19T01:24:16.825Z,58.30
2023-02-19T01:26:46.442Z,58.60
2023-02-19T01:29:15.371Z,58.60
2023-02-19T01:31:46.317Z,58.70
2023-02-19T01:34:15.603Z,58.70
2023-02-19T01:36:45.594Z,59.00
2023-02-19T01:39:14.087Z,59.00
2023-02-19T01:41:44.186Z,59.40
2023-02-19T01:44:51.597Z,59.30
2023-02-19T01:47:22.565Z,59.30
2023-02-19T01:49:55.783Z,59.30
2023-02-19T01:52:30.819Z,59.30
2023-02-19T01:55:02.272Z,59.40
2023-02-19T01:57:35.894Z,59.40
2023-02-19T02:00:09.826Z,59.60
2023-02-19T02:02:42.053Z,59.60
2023-02-19T02:05:17.172Z,59.80
2023-02-19T02:08:03.730Z,59.70
2023-02-19T02:10:32.597Z,59.70
2023-02-19T02:13:01.452Z,59.60
2023-02-19T02:15:41.230Z,59.80
2023-02-19T02:18:21.069Z,59.60
2023-02-19T02:21:31.070Z,59.70
2023-02-19T02:24:13.284Z,59.30
2023-02-19T02:26:52.333Z,59.60
2023-02-19T02:29:49.116Z,59.80
2023-02-19T02:32:21.660Z,59.70
2023-02-19T02:34:54.564Z,61.00
2023-02-19T02:37:24.331Z,59.60
2023-02-19T02:39:54.611Z,60.90
2023-02-19T02:42:28.916Z,60.80
2023-02-19T02:45:32.009Z,60.90
2023-02-19T02:48:07.294Z,61.00
2023-02-19T02:50:39.275Z,61.00
2023-02-19T02:53:33.363Z,61.20
2023-02-19T02:56:02.681Z,61.20
2023-02-19T02:58:33.058Z,61.20
2023-02-19T03:01:25.112Z,61.30
2023-02-19T03:03:58.354Z,61.00
2023-02-19T03:06:31.943Z,61.20
2023-02-19T03:09:06.619Z,61.30
2023-02-19T03:11:56.791Z,61.10
2023-02-19T03:14:49.660Z,61.30
2023-02-19T03:17:42.094Z,61.30
2023-02-19T03:20:14.985Z,61.30
2023-02-19T03:22:45.612Z,61.00
2023-02-19T03:25:35.719Z,60.80
2023-02-19T03:28:09.173Z,61.30
2023-02-19T03:30:42.950Z,61.00
2023-02-19T03:33:16.506Z,61.30
2023-02-19T03:35:48.404Z,61.10
2023-02-19T03:38:21.365Z,61.00
2023-02-19T03:40:59.166Z,61.10
2023-02-19T03:43:38.881Z,61.20
2023-02-19T03:46:12.983Z,61.10
2023-02-19T03:48:52.195Z,60.80
2023-02-19T03:51:31.911Z,61.00
2023-02-19T03:54:13.401Z,61.00
2023-02-19T03:56:49.378Z,60.70
2023-02-19T03:59:21.687Z,60.80
2023-02-19T04:01:54.943Z,61.40
2023-02-19T04:04:30.012Z,61.10
2023-02-19T04:06:59.530Z,61.20
2023-02-19T04:09:33.903Z,61.10
2023-02-19T04:12:03.957Z,61.40
2023-02-19T04:14:36.250Z,61.30
2023-02-19T04:17:09.910Z,61.50
2023-02-19T04:19:42.877Z,61.70
2023-02-19T04:22:14.136Z,61.60
2023-02-19T04:24:47.603Z,61.80
2023-02-19T04:27:17.945Z,61.40
2023-02-19T04:29:46.297Z,61.50
2023-02-19T04:32:15.149Z,61.60
2023-02-19T04:34:45.501Z,61.70
2023-02-19T04:37:15.710Z,61.60
2023-02-19T04:39:43.970Z,61.40
2023-02-19T04:42:13.519Z,61.60
2023-02-19T04:44:42.636Z,61.50
2023-02-19T04:47:11.809Z,61.30
2023-02-19T04:49:41.614Z,61.60
2023-02-19T04:52:11.754Z,61.60
2023-02-19T04:54:41.139Z,61.50
2023-02-19T04:57:09.459Z,61.40
2023-02-19T04:59:37.881Z,61.70
2023-02-19T05:02:06.121Z,61.40
2023-02-19T05:04:34.824Z,61.30
2023-02-19T05:07:03.142Z,61.50
2023-02-19T05:09:32.931Z,61.40
2023-02-19T05:12:02.286Z,61.30
2023-02-19T05:14:31.367Z,61.50
2023-02-19T05:16:59.583Z,61.70
2023-02-19T05:19:28.290Z,61.70
2023-02-19T05:21:56.946Z,61.40
2023-02-19T05:24:26.975Z,61.70
2023-02-19T05:26:56.981Z,61.60
2023-02-19T05:29:25.529Z,61.60
2023-02-19T05:31:54.105Z,61.70
2023-02-19T05:34:22.630Z,61.70
2023-02-19T05:36:51.192Z,61.40
2023-02-19T05:39:20.142Z,61.60
2023-02-19T05:41:48.395Z,61.80
2023-02-19T05:44:18.368Z,62.50
2023-02-19T05:46:46.865Z,62.10
2023-02-19T05:49:17.067Z,62.70
2023-02-19T05:51:45.344Z,62.80
2023-02-19T05:54:13.757Z,62.80
2023-02-19T05:56:43.339Z,62.70
2023-02-19T05:59:19.331Z,63.10
2023-02-19T06:01:49.141Z,63.30
2023-02-19T06:04:19.312Z,63.00
2023-02-19T06:06:48.916Z,63.30
2023-02-19T06:09:17.675Z,63.40
2023-02-19T06:11:47.060Z,63.60
2023-02-19T06:14:15.787Z,63.90
2023-02-19T06:16:47.708Z,63.60
2023-02-19T06:19:17.494Z,64.00
2023-02-19T06:21:46.669Z,64.50
2023-02-19T06:24:15.128Z,64.40
2023-02-19T06:26:43.285Z,64.20
2023-02-19T06:29:11.813Z,64.40
2023-02-19T06:31:40.115Z,64.00
2023-02-19T06:34:09.774Z,64.10
2023-02-19T06:36:38.132Z,64.10
2023-02-19T06:39:07.037Z,63.80
2023-02-19T06:41:35.576Z,64.10
2023-02-19T06:44:03.803Z,64.00
2023-02-19T06:46:32.124Z,63.70
2023-02-19T06:49:00.476Z,63.70
2023-02-19T06:51:30.109Z,63.80
2023-02-19T06:53:58.400Z,63.70
2023-02-19T06:56:29.080Z,63.40
2023-02-19T06:59:00.611Z,63.60
2023-02-19T07:01:30.455Z,63.50
2023-02-19T07:03:59.488Z,63.40
2023-02-19T07:06:30.059Z,62.90
2023-02-19T07:08:59.498Z,63.00
2023-02-19T07:11:30.681Z,63.00
2023-02-19T07:13:59.853Z,63.30
2023-02-19T07:16:28.826Z,63.30
2023-02-19T07:18:58.097Z,63.20
2023-02-19T07:21:27.979Z,63.20
2023-02-19T07:23:57.875Z,63.40
2023-02-19T07:26:26.469Z,63.20
2023-02-19T07:28:55.098Z,63.20
2023-02-19T07:31:25.266Z,63.40
2023-02-19T07:33:53.526Z,63.00
2023-02-19T07:36:23.308Z,63.30
2023-02-19T07:38:55.905Z,63.30
2023-02-19T07:41:27.310Z,63.50
2023-02-19T07:43:56.749Z,63.50
2023-02-19T07:46:27.132Z,63.50
2023-02-19T07:48:58.771Z,63.80
2023-02-19T07:51:37.456Z,63.40
2023-02-19T07:54:08.556Z,63.90
2023-02-19T07:56:55.364Z,64.00
2023-02-19T07:59:25.940Z,64.20
2023-02-19T08:02:17.150Z,64.00
2023-02-19T08:04:50.958Z,64.30
2023-02-19T08:07:31.833Z,63.80
2023-02-19T08:10:23.215Z,63.70
2023-02-19T08:13:23.133Z,64.10
2023-02-19T08:15:56.282Z,64.40
2023-02-19T08:18:31.857Z,63.70
2023-02-19T08:21:02.517Z,64.20
2023-02-19T08:23:31.424Z,64.10
2023-02-19T08:26:02.964Z,64.40
2023-02-19T08:28:33.228Z,64.10
2023-02-19T08:31:04.409Z,64.30
2023-02-19T08:33:36.117Z,64.40
2023-02-19T08:36:07.992Z,63.90
2023-02-19T08:38:38.290Z,63.90
2023-02-19T08:41:09.700Z,64.00
2023-02-19T08:43:40.125Z,63.90
2023-02-19T08:46:10.924Z,63.70
2023-02-19T08:48:40.818Z,64.00
2023-02-19T08:51:12.162Z,63.50
2023-02-19T08:53:42.550Z,63.40
2023-02-19T08:56:13.160Z,63.40
2023-02-19T08:58:43.884Z,62.80
2023-02-19T09:01:14.578Z,62.80
2023-02-19T09:03:44.578Z,62.60
2023-02-19T09:06:17.458Z,62.40
2023-02-19T09:08:46.234Z,62.40
2023-02-19T09:11:15.556Z,62.30
2023-02-19T09:13:46.034Z,61.60
2023-02-19T09:16:14.714Z,61.80
2023-02-19T09:18:45.810Z,61.90
2023-02-19T09:21:14.291Z,61.90
2023-02-19T09:23:42.782Z,61.40
2023-02-19T09:26:11.507Z,61.00
2023-02-19T09:28:42.038Z,61.20
2023-02-19T09:31:14.928Z,61.10
2023-02-19T09:33:44.673Z,61.00
2023-02-19T09:36:13.745Z,60.70
2023-02-19T09:38:42.624Z,61.10
2023-02-19T09:41:18.027Z,60.90
2023-02-19T09:43:47.377Z,60.90
2023-02-19T09:46:27.263Z,60.60
2023-02-19T09:49:00.015Z,60.80
2023-02-19T09:51:30.699Z,60.50
2023-02-19T09:53:59.776Z,60.20
2023-02-19T09:56:28.871Z,60.20
2023-02-19T09:58:59.304Z,59.40
2023-02-19T10:01:34.002Z,58.70
2023-02-19T10:04:02.439Z,59.30
2023-02-19T10:06:36.730Z,59.40
2023-02-19T10:09:18.425Z,59.00
2023-02-19T10:11:49.393Z,58.90
2023-02-19T10:14:23.023Z,58.70
2023-02-19T10:16:54.831Z,58.20
2023-02-19T10:19:26.253Z,58.40
2023-02-19T10:21:56.795Z,57.90
2023-02-19T10:24:28.806Z,57.50
2023-02-19T10:26:57.993Z,57.70
2023-02-19T10:29:27.591Z,57.60
2023-02-19T10:32:21.192Z,57.40
2023-02-19T10:34:50.186Z,57.30
2023-02-19T10:37:19.808Z,57.40
2023-02-19T10:39:50.683Z,57.90
2023-02-19T10:42:24.533Z,57.60
2023-02-19T10:44:58.718Z,58.10
2023-02-19T10:47:32.925Z,57.60
2023-02-19T10:50:04.522Z,57.10
2023-02-19T10:52:36.309Z,57.60
2023-02-19T10:55:17.430Z,56.90
2023-02-19T10:57:47.191Z,57.20
2023-02-19T11:00:24.225Z,56.90
2023-02-19T11:03:15.670Z,57.10
2023-02-19T11:05:59.472Z,57.00
2023-02-19T11:08:28.305Z,56.80
2023-02-19T11:10:57.241Z,56.50
2023-02-19T11:13:32.933Z,56.50
2023-02-19T11:16:03.018Z,56.20
2023-02-19T11:18:36.281Z,56.30
2023-02-19T11:21:08.468Z,56.30
2023-02-19T11:23:47.794Z,56.00
2023-02-19T11:26:21.239Z,56.00
2023-02-19T11:28:58.088Z,55.50
2023-02-19T11:31:28.350Z,55.30
2023-02-19T11:34:00.514Z,55.30
2023-02-19T11:36:34.737Z,55.20
2023-02-19T11:39:29.640Z,55.50
2023-02-19T11:42:18.680Z,55.40
2023-02-19T11:45:01.347Z,55.20
2023-02-19T11:48:17.325Z,55.00
2023-02-19T11:51:01.351Z,55.10
2023-02-19T11:53:34.503Z,55.10
2023-02-19T11:56:15.286Z,55.20
2023-02-19T11:59:04.938Z,55.40
2023-02-19T12:01:49.994Z,54.90
2023-02-19T12:04:46.856Z,55.10
2023-02-19T12:07:30.840Z,54.90
2023-02-19T12:10:08.288Z,55.00
2023-02-19T12:12:50.449Z,54.90
2023-02-19T12:15:30.136Z,54.80
2023-02-19T12:18:30.091Z,54.70
2023-02-19T12:21:12.353Z,54.90
2023-02-19T12:24:06.245Z,55.00
2023-02-19T12:26:42.899Z,54.90
2023-02-19T12:29:28.115Z,55.00
2023-02-19T12:32:22.247Z,54.80
2023-02-19T12:35:13.525Z,54.70
2023-02-19T12:37:50.170Z,54.60
2023-02-19T12:40:35.808Z,54.40
2023-02-19T12:43:15.039Z,54.30
2023-02-19T12:45:47.501Z,53.80
2023-02-19T12:48:25.123Z,54.00
2023-02-19T12:50:58.290Z,54.00
2023-02-19T12:53:36.506Z,53.70
2023-02-19T12:56:13.711Z,53.80
2023-02-19T12:58:46.160Z,53.50
2023-02-19T13:01:19.639Z,53.60
2023-02-19T13:03:54.164Z,53.40
2023-02-19T13:06:34.463Z,53.50
2023-02-19T13:09:10.677Z,53.50
2023-02-19T13:11:45.098Z,53.40
2023-02-19T13:14:21.145Z,53.30
2023-02-19T13:16:57.344Z,53.50
2023-02-19T13:19:26.545Z,53.60
2023-02-19T13:22:22.044Z,53.40
2023-02-19T13:24:52.274Z,53.70
2023-02-19T13:30:51.618Z,54.10
2023-02-19T13:33:42.160Z,53.50
2023-02-19T13:36:16.605Z,53.60
2023-02-19T13:38:48.007Z,53.60
2023-02-19T13:41:29.230Z,53.80
2023-02-19T13:44:02.635Z,53.50
2023-02-19T13:46:37.912Z,53.10
2023-02-19T13:49:40.179Z,53.10
2023-02-19T13:52:38.262Z,52.80
2023-02-19T13:55:46.840Z,53.20
2023-02-19T13:59:01.957Z,53.10
2023-02-19T14:02:14.337Z,52.90
2023-02-19T14:04:55.563Z,52.90
2023-02-19T14:08:07.180Z,52.60
2023-02-19T14:11:02.442Z,52.60
2023-02-19T14:14:01.267Z,53.00
2023-02-19T14:16:46.084Z,52.80
2023-02-19T14:19:16.457Z,52.80
2023-02-19T14:21:46.628Z,53.00
2023-02-19T14:24:17.581Z,52.70
2023-02-19T14:26:46.157Z,52.70
2023-02-19T14:29:16.760Z,52.80
2023-02-19T14:31:47.149Z,52.70
2023-02-19T14:34:22.305Z,52.30
2023-02-19T14:36:55.563Z,52.50
2023-02-19T14:39:26.385Z,52.80
2023-02-19T14:41:58.518Z,52.40
2023-02-19T14:44:30.103Z,52.50
2023-02-19T14:47:03.815Z,52.70
2023-02-19T14:49:42.517Z,52.70
2023-02-19T14:52:18.088Z,52.10
2023-02-19T14:54:51.979Z,52.30
2023-02-19T14:57:28.494Z,52.60
2023-02-19T15:00:01.520Z,52.10
2023-02-19T15:02:31.943Z,52.30
2023-02-19T15:05:00.526Z,51.80
2023-02-19T15:07:33.627Z,52.30
2023-02-19T15:10:05.910Z,52.00
2023-02-19T15:12:36.538Z,52.00
2023-02-19T15:15:07.144Z,52.10
2023-02-19T15:17:39.891Z,51.70
2023-02-19T15:20:12.877Z,51.90
2023-02-19T15:22:43.100Z,51.50
2023-02-19T15:25:17.812Z,51.40
2023-02-19T15:27:46.444Z,51.80
2023-02-19T15:30:22.537Z,51.30
2023-02-19T15:32:56.846Z,51.40
2023-02-19T15:35:26.919Z,51.80
2023-02-19T15:37:57.169Z,51.50
2023-02-19T15:40:29.341Z,51.70
2023-02-19T15:42:58.039Z,51.40
2023-02-19T15:45:30.976Z,51.50
2023-02-19T15:48:04.483Z,51.60
2023-02-19T15:50:35.982Z,51.30
2023-02-19T15:53:10.127Z,51.70
2023-02-19T15:55:42.649Z,51.70
2023-02-19T15:58:17.780Z,52.00
2023-02-19T16:00:49.757Z,52.00
2023-02-19T16:03:20.259Z,51.80
2023-02-19T16:05:59.910Z,51.80
2023-02-19T16:08:32.503Z,52.00
2023-02-19T16:11:02.417Z,52.40
2023-02-19T16:13:32.975Z,52.10
2023-02-19T16:16:07.792Z,52.00
2023-02-19T16:18:36.541Z,52.10
2023-02-19T16:21:09.191Z,52.40
2023-02-19T16:23:43.051Z,52.40
2023-02-19T16:26:12.157Z,52.60
2023-02-19T16:28:42.242Z,52.60
2023-02-19T16:31:13.013Z,52.60
2023-02-19T16:33:43.917Z,52.60
2023-02-19T16:36:21.334Z,52.60
2023-02-19T16:39:17.069Z,52.70
2023-02-19T16:42:14.612Z,53.10
2023-02-19T16:44:44.932Z,53.00
2023-02-19T16:47:34.688Z,52.80
2023-02-19T16:50:12.914Z,53.00
2023-02-19T16:52:54.485Z,52.70
2023-02-19T16:55:25.391Z,53.30
2023-02-19T16:57:54.143Z,53.00
2023-02-19T17:00:25.312Z,52.90
2023-02-19T17:02:56.308Z,52.90
2023-02-19T17:05:28.600Z,53.20
2023-02-19T17:07:57.246Z,53.20
2023-02-19T17:10:29.347Z,53.20
2023-02-19T17:12:57.895Z,53.30
2023-02-19T17:15:26.088Z,52.90
2023-02-19T17:17:54.488Z,53.00
2023-02-19T17:20:27.505Z,53.20
2023-02-19T17:23:07.405Z,53.50
2023-02-19T17:25:36.997Z,53.40
2023-02-19T17:28:05.983Z,53.30
2023-02-19T17:30:35.911Z,53.20
2023-02-19T17:33:07.377Z,53.60
2023-02-19T17:35:35.676Z,53.50
2023-02-19T17:38:09.639Z,53.80
2023-02-19T17:40:39.594Z,53.40
2023-02-19T17:43:09.721Z,53.50
2023-02-19T17:45:43.726Z,52.90
2023-02-19T17:48:15.084Z,53.40
2023-02-19T17:50:44.231Z,53.40
2023-02-19T17:53:12.870Z,53.30
2023-02-19T17:55:45.103Z,53.60
2023-02-19T17:58:14.958Z,53.60
2023-02-19T18:00:43.377Z,53.60
2023-02-19T18:03:11.911Z,53.60
2023-02-19T18:05:40.382Z,53.80
2023-02-19T18:08:08.603Z,53.90
2023-02-19T18:10:37.138Z,53.60
2023-02-19T18:13:07.022Z,53.50
2023-02-19T18:15:35.362Z,53.50
2023-02-19T18:18:05.106Z,53.50
2023-02-19T18:20:33.243Z,53.50
2023-02-19T18:23:01.791Z,53.90
2023-02-19T18:25:30.030Z,53.60
2023-02-19T18:27:59.414Z,53.70
2023-02-19T18:30:29.822Z,53.80
2023-02-19T18:32:58.800Z,53.70
2023-02-19T18:35:27.302Z,53.90
2023-02-19T18:37:58.486Z,53.70
2023-02-19T18:40:26.915Z,53.50
2023-02-19T18:42:55.480Z,53.70
2023-02-19T18:45:37.437Z,53.80
2023-02-19T18:48:07.682Z,53.70
2023-02-19T18:50:36.156Z,53.60
2023-02-19T18:53:04.723Z,53.30
2023-02-19T18:55:34.856Z,53.70
2023-02-19T18:58:03.610Z,53.70
2023-02-19T19:00:32.013Z,53.90
2023-02-19T19:03:01.015Z,54.20
2023-02-19T19:05:30.965Z,53.80
2023-02-19T19:08:01.775Z,54.10
2023-02-19T19:10:31.076Z,54.30
2023-02-19T19:12:59.485Z,54.30
2023-02-19T19:15:29.262Z,54.30
2023-02-19T19:17:59.978Z,54.30
2023-02-19T19:20:31.354Z,54.20
2023-02-19T19:23:00.608Z,54.50
2023-02-19T19:25:29.542Z,54.30
2023-02-19T19:27:58.055Z,54.50
2023-02-19T19:30:26.877Z,54.20
2023-02-19T19:32:55.944Z,54.80
2023-02-19T19:35:25.016Z,54.50
2023-02-19T19:37:54.816Z,54.40
2023-02-19T19:40:23.315Z,54.70
2023-02-19T19:42:52.453Z,54.60
2023-02-19T19:45:21.518Z,54.70
2023-02-19T19:47:50.260Z,54.70
2023-02-19T19:50:19.306Z,54.80
2023-02-19T19:52:48.751Z,54.50
2023-02-19T19:55:21.327Z,54.80
2023-02-19T19:57:50.358Z,54.90
2023-02-19T20:00:20.656Z,55.10
2023-02-19T20:02:49.394Z,55.10
2023-02-19T20:05:18.087Z,54.80
2023-02-19T20:07:47.057Z,54.80
2023-02-19T20:10:17.781Z,55.10
2023-02-19T20:12:48.430Z,54.90
2023-02-19T20:15:20.991Z,55.10
2023-02-19T20:17:51.517Z,55.20
2023-02-19T20:20:22.631Z,55.00
2023-02-19T20:22:52.770Z,55.30
2023-02-19T20:25:23.329Z,55.30
2023-02-19T20:27:53.688Z,55.40
2023-02-19T20:30:24.284Z,55.20
2023-02-19T20:32:55.263Z,55.00
2023-02-19T20:35:26.504Z,55.30
2023-02-19T20:37:56.316Z,55.40
2023-02-19T20:40:27.437Z,55.20
2023-02-19T20:43:01.522Z,55.60
2023-02-19T20:45:32.676Z,55.60
2023-02-19T20:48:01.543Z,55.40
2023-02-19T20:50:30.544Z,55.50
2023-02-19T20:52:59.043Z,55.50
2023-02-19T20:55:28.925Z,56.00
2023-02-19T20:57:58.768Z,55.70
2023-02-19T21:00:27.205Z,55.90
2023-02-19T21:02:55.697Z,56.00
2023-02-19T21:05:24.338Z,55.70
2023-02-19T21:07:52.558Z,56.10
2023-02-19T21:10:20.973Z,56.10
2023-02-19T21:12:50.635Z,55.90
2023-02-19T21:15:20.985Z,55.90
2023-02-19T21:17:50.549Z,56.10
2023-02-19T21:20:19.211Z,56.20
2023-02-19T21:22:48.010Z,55.80
2023-02-19T21:25:16.379Z,55.60
2023-02-19T21:27:44.990Z,56.10
2023-02-19T21:30:14.370Z,55.90
2023-02-19T21:32:44.058Z,56.30
2023-02-19T21:35:12.362Z,56.30
2023-02-19T21:37:43.454Z,56.00
2023-02-19T21:40:21.998Z,56.30
2023-02-19T21:42:50.491Z,56.40
2023-02-19T21:45:18.928Z,56.20
2023-02-19T21:47:52.001Z,56.40
2023-02-19T21:50:20.813Z,56.10
2023-02-19T21:52:49.330Z,56.10
2023-02-19T21:55:17.634Z,55.90
2023-02-19T21:57:46.169Z,56.20
2023-02-19T22:00:15.593Z,56.10
2023-02-19T22:02:44.153Z,56.20
2023-02-19T22:05:13.871Z,56.10
2023-02-19T22:07:42.503Z,56.10
2023-02-19T22:10:11.331Z,56.10
2023-02-19T22:12:39.927Z,56.60
2023-02-19T22:15:09.370Z,56.60
2023-02-19T22:17:38.542Z,56.60
2023-02-19T22:20:09.354Z,56.70
2023-02-19T22:22:38.872Z,56.70
2023-02-19T22:25:07.882Z,56.70
2023-02-19T22:27:37.268Z,57.00
2023-02-19T22:30:07.946Z,57.00
2023-02-19T22:32:36.590Z,56.90
2023-02-19T22:35:05.607Z,57.20
2023-02-19T22:37:34.380Z,57.10
2023-02-19T22:40:04.021Z,57.20
2023-02-19T22:42:35.920Z,57.00
2023-02-19T22:45:04.550Z,57.00
2023-02-19T22:47:33.190Z,57.30
2023-02-19T22:50:01.395Z,57.30
2023-02-19T22:52:29.777Z,56.90
2023-02-19T22:54:58.259Z,57.50
2023-02-19T22:57:28.688Z,57.50
2023-02-19T22:59:58.092Z,57.90
2023-02-19T23:02:26.627Z,57.40
2023-02-19T23:04:54.929Z,57.80
2023-02-19T23:07:23.543Z,57.90
2023-02-19T23:09:51.987Z,58.00
2023-02-19T23:12:21.164Z,57.60
2023-02-19T23:14:50.735Z,58.00
2023-02-19T23:17:18.865Z,57.90
2023-02-19T23:19:47.673Z,57.80
2023-02-19T23:22:16.351Z,57.90
2023-02-19T23:24:44.552Z,57.70
2023-02-19T23:27:12.941Z,58.00
2023-02-19T23:29:41.184Z,57.80
2023-02-19T23:32:10.940Z,57.70
2023-02-19T23:38:53.590Z,57.40
2023-02-19T23:41:22.018Z,57.50
2023-02-19T23:43:50.886Z,57.60
2023-02-19T23:46:19.639Z,58.10
2023-02-19T23:48:49.588Z,58.10
2023-02-19T23:51:17.949Z,58.30
2023-02-19T23:53:46.236Z,58.20
2023-02-19T23:56:14.834Z,58.90
2023-02-19T23:58:43.484Z,58.70
